sensor_id;sensor_type;location;lat;lon;timestamp;temperature;humidity
54409;DHT22;40315;48.620;9.828;2024-03-23T00:52:23;7.50;99.90
54409;DHT22;40315;48.620;9.828;2024-03-23T00:54:50;7.30;99.90
54409;DHT22;40315;48.620;9.828;2024-03-23T00:57:18;7.30;99.90
54409;DHT22;40315;48.620;9.828;2024-03-23T00:59:47;7.40;99.90
54409;DHT22;40315;48.620;9.828;2024-03-23T01:02:13;7.50;99.90
54409;DHT22;40315;48.620;9.828;2024-03-23T01:04:40;7.40;99.90
54409;DHT22;40315;48.620;9.828;2024-03-23T01:07:07;7.30;99.90
54409;DHT22;40315;48.620;9.828;2024-03-23T01:09:37;7.20;99.90
54409;DHT22;40315;48.620;9.828;2024-03-23T01:12:06;7.10;99.90
54409;DHT22;40315;48.620;9.828;2024-03-23T01:14:33;6.90;99.90
54409;DHT22;40315;48.620;9.828;2024-03-23T01:17:01;6.90;99.90
54409;DHT22;40315;48.620;9.828;2024-03-23T01:19:27;6.90;99.90
54409;DHT22;40315;48.620;9.828;2024-03-23T01:21:53;6.90;99.90
54409;DHT22;40315;48.620;9.828;2024-03-23T01:24:23;6.90;99.90
54409;DHT22;40315;48.620;9.828;2024-03-23T01:26:50;7.00;99.90
54409;DHT22;40315;48.620;9.828;2024-03-23T01:29:17;7.10;99.90
54409;DHT22;40315;48.620;9.828;2024-03-23T01:31:43;7.10;99.90
54409;DHT22;40315;48.620;9.828;2024-03-23T01:34:12;7.10;99.90
54409;DHT22;40315;48.620;9.828;2024-03-23T01:36:38;7.10;99.90
54409;DHT22;40315;48.620;9.828;2024-03-23T01:39:08;7.20;99.90
54409;DHT22;40315;48.620;9.828;2024-03-23T01:41:35;7.20;99.90
54409;DHT22;40315;48.620;9.828;2024-03-23T01:44:06;7.10;99.90
54409;DHT22;40315;48.620;9.828;2024-03-23T01:46:35;7.10;99.90
54409;DHT22;40315;48.620;9.828;2024-03-23T01:49:02;7.10;99.90
54409;DHT22;40315;48.620;9.828;2024-03-23T01:51:31;7.20;99.90
54409;DHT22;40315;48.620;9.828;2024-03-23T01:53:58;7.20;99.90
54409;DHT22;40315;48.620;9.828;2024-03-23T01:56:28;7.40;99.90
54409;DHT22;40315;48.620;9.828;2024-03-23T01:58:57;7.50;99.90
54409;DHT22;40315;48.620;9.828;2024-03-23T02:01:27;7.50;99.90
54409;DHT22;40315;48.620;9.828;2024-03-23T02:03:57;7.80;99.90
54409;DHT22;40315;48.620;9.828;2024-03-23T02:06:24;7.90;99.90
54409;DHT22;40315;48.620;9.828;2024-03-23T02:08:51;7.80;99.90
54409;DHT22;40315;48.620;9.828;2024-03-23T02:11:17;7.70;99.90
54409;DHT22;40315;48.620;9.828;2024-03-23T02:13:44;7.70;99.90
54409;DHT22;40315;48.620;9.828;2024-03-23T02:16:10;7.70;99.90
54409;DHT22;40315;48.620;9.828;2024-03-23T02:18:40;8.00;99.90
54409;DHT22;40315;48.620;9.828;2024-03-23T02:21:08;8.20;99.90
54409;DHT22;40315;48.620;9.828;2024-03-23T02:23:37;8.10;99.90
54409;DHT22;40315;48.620;9.828;2024-03-23T02:26:03;5.90;99.90
54409;DHT22;40315;48.620;9.828;2024-03-23T02:28:30;8.20;99.90
54409;DHT22;40315;48.620;9.828;2024-03-23T02:30:56;8.40;99.90
54409;DHT22;40315;48.620;9.828;2024-03-23T02:33:26;8.50;99.90
54409;DHT22;40315;48.620;9.828;2024-03-23T02:35:55;8.60;99.90
54409;DHT22;40315;48.620;9.828;2024-03-23T02:38:25;8.80;99.90
54409;DHT22;40315;48.620;9.828;2024-03-23T02:40:55;8.90;99.90
54409;DHT22;40315;48.620;9.828;2024-03-23T02:43:22;8.90;99.90
54409;DHT22;40315;48.620;9.828;2024-03-23T02:45:48;8.80;99.90
54409;DHT22;40315;48.620;9.828;2024-03-23T02:48:15;8.90;99.90
54409;DHT22;40315;48.620;9.828;2024-03-23T02:50:43;8.90;99.90
54409;DHT22;40315;48.620;9.828;2024-03-23T02:53:12;8.80;99.90
54409;DHT22;40315;48.620;9.828;2024-03-23T02:55:39;8.90;99.90
54409;DHT22;40315;48.620;9.828;2024-03-23T02:58:10;9.00;99.90
54409;DHT22;40315;48.620;9.828;2024-03-23T03:00:39;9.00;99.90
54409;DHT22;40315;48.620;9.828;2024-03-23T03:03:08;8.90;99.90
54409;DHT22;40315;48.620;9.828;2024-03-23T03:05:37;8.90;99.90
54409;DHT22;40315;48.620;9.828;2024-03-23T03:08:05;8.80;99.90
54409;DHT22;40315;48.620;9.828;2024-03-23T03:10:31;8.80;99.90
54409;DHT22;40315;48.620;9.828;2024-03-23T03:13:02;8.70;99.90
54409;DHT22;40315;48.620;9.828;2024-03-23T03:15:30;8.80;99.90
54409;DHT22;40315;48.620;9.828;2024-03-23T03:17:59;8.70;99.90
54409;DHT22;40315;48.620;9.828;2024-03-23T03:20:25;8.80;99.90
54409;DHT22;40315;48.620;9.828;2024-03-23T03:22:52;8.90;99.90
54409;DHT22;40315;48.620;9.828;2024-03-23T03:25:19;8.90;99.90
54409;DHT22;40315;48.620;9.828;2024-03-23T03:27:46;8.90;99.90
54409;DHT22;40315;48.620;9.828;2024-03-23T03:30:13;8.00;99.90
54409;DHT22;40315;48.620;9.828;2024-03-23T03:32:41;8.90;99.90
54409;DHT22;40315;48.620;9.828;2024-03-23T03:35:07;8.90;99.90
54409;DHT22;40315;48.620;9.828;2024-03-23T03:37:34;8.90;99.90
54409;DHT22;40315;48.620;9.828;2024-03-23T03:40:00;8.90;99.90
54409;DHT22;40315;48.620;9.828;2024-03-23T03:42:27;8.40;99.90
54409;DHT22;40315;48.620;9.828;2024-03-23T03:44:53;8.90;99.90
54409;DHT22;40315;48.620;9.828;2024-03-23T03:47:22;8.90;99.90
54409;DHT22;40315;48.620;9.828;2024-03-23T03:49:49;8.90;99.90
54409;DHT22;40315;48.620;9.828;2024-03-23T03:52:18;8.90;99.90
54409;DHT22;40315;48.620;9.828;2024-03-23T03:54:44;8.90;99.90
54409;DHT22;40315;48.620;9.828;2024-03-23T03:57:12;8.90;99.90
54409;DHT22;40315;48.620;9.828;2024-03-23T03:59:40;8.90;99.90
54409;DHT22;40315;48.620;9.828;2024-03-23T04:02:07;9.00;99.90
54409;DHT22;40315;48.620;9.828;2024-03-23T04:04:33;9.00;99.90
54409;DHT22;40315;48.620;9.828;2024-03-23T04:07:02;9.10;99.90
54409;DHT22;40315;48.620;9.828;2024-03-23T04:09:30;9.10;99.90
54409;DHT22;40315;48.620;9.828;2024-03-23T04:11:57;8.40;99.90
54409;DHT22;40315;48.620;9.828;2024-03-23T04:14:23;9.10;99.90
54409;DHT22;40315;48.620;9.828;2024-03-23T04:16:52;9.10;99.90
54409;DHT22;40315;48.620;9.828;2024-03-23T04:19:18;9.10;99.90
54409;DHT22;40315;48.620;9.828;2024-03-23T04:21:45;9.10;99.90
54409;DHT22;40315;48.620;9.828;2024-03-23T04:24:15;9.00;99.90
54409;DHT22;40315;48.620;9.828;2024-03-23T04:26:44;8.90;99.90
54409;DHT22;40315;48.620;9.828;2024-03-23T04:29:11;8.90;99.90
54409;DHT22;40315;48.620;9.828;2024-03-23T04:31:38;8.90;99.90
54409;DHT22;40315;48.620;9.828;2024-03-23T04:34:04;8.80;99.90
54409;DHT22;40315;48.620;9.828;2024-03-23T04:36:31;8.80;99.90
54409;DHT22;40315;48.620;9.828;2024-03-23T04:38:59;8.80;99.90
54409;DHT22;40315;48.620;9.828;2024-03-23T04:41:30;8.80;99.90
54409;DHT22;40315;48.620;9.828;2024-03-23T04:43:57;8.70;99.90
54409;DHT22;40315;48.620;9.828;2024-03-23T04:46:26;8.70;99.90
54409;DHT22;40315;48.620;9.828;2024-03-23T04:48:52;8.70;99.90
54409;DHT22;40315;48.620;9.828;2024-03-23T04:51:22;8.70;99.90
54409;DHT22;40315;48.620;9.828;2024-03-23T04:53:52;8.60;99.90
54409;DHT22;40315;48.620;9.828;2024-03-23T04:56:19;8.50;99.90
54409;DHT22;40315;48.620;9.828;2024-03-23T04:58:47;8.50;99.90
54409;DHT22;40315;48.620;9.828;2024-03-23T05:01:13;8.50;99.90
54409;DHT22;40315;48.620;9.828;2024-03-23T05:03:40;8.50;99.90
54409;DHT22;40315;48.620;9.828;2024-03-23T05:06:07;8.60;99.90
54409;DHT22;40315;48.620;9.828;2024-03-23T05:08:33;8.60;99.90
54409;DHT22;40315;48.620;9.828;2024-03-23T05:10:59;8.90;99.90
54409;DHT22;40315;48.620;9.828;2024-03-23T05:13:27;8.90;99.90
54409;DHT22;40315;48.620;9.828;2024-03-23T05:15:55;8.80;99.90
54409;DHT22;40315;48.620;9.828;2024-03-23T05:18:23;8.80;99.90
54409;DHT22;40315;48.620;9.828;2024-03-23T05:20:56;8.80;99.90
54409;DHT22;40315;48.620;9.828;2024-03-23T05:23:27;8.80;99.90
54409;DHT22;40315;48.620;9.828;2024-03-23T05:25:57;8.80;99.90
54409;DHT22;40315;48.620;9.828;2024-03-23T05:28:23;8.80;99.90
54409;DHT22;40315;48.620;9.828;2024-03-23T05:30:50;8.80;99.90
54409;DHT22;40315;48.620;9.828;2024-03-23T05:33:18;8.80;99.90
54409;DHT22;40315;48.620;9.828;2024-03-23T05:35:45;8.90;99.90
54409;DHT22;40315;48.620;9.828;2024-03-23T05:38:14;9.10;99.90
54409;DHT22;40315;48.620;9.828;2024-03-23T05:40:41;9.50;99.90
54409;DHT22;40315;48.620;9.828;2024-03-23T05:43:07;9.30;99.90
54409;DHT22;40315;48.620;9.828;2024-03-23T05:45:35;9.90;99.90
54409;DHT22;40315;48.620;9.828;2024-03-23T05:48:00;9.60;99.90
54409;DHT22;40315;48.620;9.828;2024-03-23T05:50:29;10.00;99.90
54409;DHT22;40315;48.620;9.828;2024-03-23T05:52:55;9.80;99.90
54409;DHT22;40315;48.620;9.828;2024-03-23T05:55:22;9.70;99.90
54409;DHT22;40315;48.620;9.828;2024-03-23T05:57:48;9.60;99.90
54409;DHT22;40315;48.620;9.828;2024-03-23T06:00:17;9.50;99.90
54409;DHT22;40315;48.620;9.828;2024-03-23T06:02:43;9.40;99.90
54409;DHT22;40315;48.620;9.828;2024-03-23T06:05:11;9.30;99.90
54409;DHT22;40315;48.620;9.828;2024-03-23T06:07:38;9.00;99.90
54409;DHT22;40315;48.620;9.828;2024-03-23T06:10:06;9.00;99.90
54409;DHT22;40315;48.620;9.828;2024-03-23T06:12:34;8.90;99.90
54409;DHT22;40315;48.620;9.828;2024-03-23T06:15:01;8.90;99.90
54409;DHT22;40315;48.620;9.828;2024-03-23T06:17:27;8.80;99.90
54409;DHT22;40315;48.620;9.828;2024-03-23T06:19:57;8.80;99.90
54409;DHT22;40315;48.620;9.828;2024-03-23T06:22:23;8.80;99.90
54409;DHT22;40315;48.620;9.828;2024-03-23T06:24:51;8.80;99.90
54409;DHT22;40315;48.620;9.828;2024-03-23T06:27:17;8.70;99.90
54409;DHT22;40315;48.620;9.828;2024-03-23T06:29:44;8.80;99.90
54409;DHT22;40315;48.620;9.828;2024-03-23T06:34:37;10.10;99.90
54409;DHT22;40315;48.620;9.828;2024-03-23T06:37:04;8.70;99.90
54409;DHT22;40315;48.620;9.828;2024-03-23T06:39:33;8.70;99.90
54409;DHT22;40315;48.620;9.828;2024-03-23T06:42:00;8.60;99.90
54409;DHT22;40315;48.620;9.828;2024-03-23T06:44:27;8.60;99.90
54409;DHT22;40315;48.620;9.828;2024-03-23T06:46:54;8.50;99.90
54409;DHT22;40315;48.620;9.828;2024-03-23T06:49:20;8.60;99.90
54409;DHT22;40315;48.620;9.828;2024-03-23T06:51:47;8.70;99.90
54409;DHT22;40315;48.620;9.828;2024-03-23T06:54:14;8.60;99.90
54409;DHT22;40315;48.620;9.828;2024-03-23T06:56:44;8.50;99.90
54409;DHT22;40315;48.620;9.828;2024-03-23T06:59:13;8.50;99.90
54409;DHT22;40315;48.620;9.828;2024-03-23T07:01:40;8.40;99.90
54409;DHT22;40315;48.620;9.828;2024-03-23T07:04:10;8.30;99.90
54409;DHT22;40315;48.620;9.828;2024-03-23T07:06:42;8.40;99.90
54409;DHT22;40315;48.620;9.828;2024-03-23T07:11:35;8.20;99.90
54409;DHT22;40315;48.620;9.828;2024-03-23T07:14:01;8.30;99.90
54409;DHT22;40315;48.620;9.828;2024-03-23T07:16:33;8.20;99.90
54409;DHT22;40315;48.620;9.828;2024-03-23T07:19:01;8.10;99.90
54409;DHT22;40315;48.620;9.828;2024-03-23T07:23:54;8.10;99.90
54409;DHT22;40315;48.620;9.828;2024-03-23T07:26:23;8.00;99.90
54409;DHT22;40315;48.620;9.828;2024-03-23T07:28:49;8.10;99.90
54409;DHT22;40315;48.620;9.828;2024-03-23T07:31:16;8.00;99.90
54409;DHT22;40315;48.620;9.828;2024-03-23T07:33:46;8.00;99.90
54409;DHT22;40315;48.620;9.828;2024-03-23T07:36:13;8.00;99.90
54409;DHT22;40315;48.620;9.828;2024-03-23T07:41:11;7.90;99.90
54409;DHT22;40315;48.620;9.828;2024-03-23T07:43:40;7.80;99.90
54409;DHT22;40315;48.620;9.828;2024-03-23T07:48:35;7.80;99.90
54409;DHT22;40315;48.620;9.828;2024-03-23T07:51:07;7.80;99.90
54409;DHT22;40315;48.620;9.828;2024-03-23T07:53:37;7.80;99.90
54409;DHT22;40315;48.620;9.828;2024-03-23T07:56:06;7.70;99.90
54409;DHT22;40315;48.620;9.828;2024-03-23T07:58:33;7.70;99.90
54409;DHT22;40315;48.620;9.828;2024-03-23T08:01:07;7.70;99.90
54409;DHT22;40315;48.620;9.828;2024-03-23T08:03:34;7.70;99.90
54409;DHT22;40315;48.620;9.828;2024-03-23T08:06:10;7.70;99.90
54409;DHT22;40315;48.620;9.828;2024-03-23T08:08:39;7.70;99.90
54409;DHT22;40315;48.620;9.828;2024-03-23T08:11:06;8.10;99.90
54409;DHT22;40315;48.620;9.828;2024-03-23T08:13:32;7.80;99.90
54409;DHT22;40315;48.620;9.828;2024-03-23T08:16:00;7.90;99.90
54409;DHT22;40315;48.620;9.828;2024-03-23T08:18:27;8.00;99.90
54409;DHT22;40315;48.620;9.828;2024-03-23T08:20:57;8.00;99.90
54409;DHT22;40315;48.620;9.828;2024-03-23T08:23:28;8.00;99.90
54409;DHT22;40315;48.620;9.828;2024-03-23T08:25:57;9.20;99.90
54409;DHT22;40315;48.620;9.828;2024-03-23T08:28:23;7.90;99.90
54409;DHT22;40315;48.620;9.828;2024-03-23T08:30:53;7.80;99.90
54409;DHT22;40315;48.620;9.828;2024-03-23T08:33:20;7.90;99.90
54409;DHT22;40315;48.620;9.828;2024-03-23T08:35:54;8.00;99.90
54409;DHT22;40315;48.620;9.828;2024-03-23T08:38:22;8.00;99.90
54409;DHT22;40315;48.620;9.828;2024-03-23T08:40:58;8.10;99.90
54409;DHT22;40315;48.620;9.828;2024-03-23T08:43:24;8.10;99.90
54409;DHT22;40315;48.620;9.828;2024-03-23T08:45:52;8.10;99.90
54409;DHT22;40315;48.620;9.828;2024-03-23T08:48:19;8.10;99.90
54409;DHT22;40315;48.620;9.828;2024-03-23T08:50:57;8.00;99.90
54409;DHT22;40315;48.620;9.828;2024-03-23T08:53:23;7.60;99.90
54409;DHT22;40315;48.620;9.828;2024-03-23T08:55:53;7.10;99.90
54409;DHT22;40315;48.620;9.828;2024-03-23T08:58:21;6.70;99.90
54409;DHT22;40315;48.620;9.828;2024-03-23T09:00:52;6.70;99.90
54409;DHT22;40315;48.620;9.828;2024-03-23T09:03:18;6.70;99.90
54409;DHT22;40315;48.620;9.828;2024-03-23T09:05:45;6.70;99.90
54409;DHT22;40315;48.620;9.828;2024-03-23T09:08:12;6.70;99.90
54409;DHT22;40315;48.620;9.828;2024-03-23T09:10:39;6.80;99.90
54409;DHT22;40315;48.620;9.828;2024-03-23T09:13:09;6.80;99.90
54409;DHT22;40315;48.620;9.828;2024-03-23T09:15:47;6.90;99.90
54409;DHT22;40315;48.620;9.828;2024-03-23T09:18:13;7.10;99.90
54409;DHT22;40315;48.620;9.828;2024-03-23T09:20:40;7.10;99.90
54409;DHT22;40315;48.620;9.828;2024-03-23T09:23:06;7.20;99.90
54409;DHT22;40315;48.620;9.828;2024-03-23T09:25:36;7.20;99.90
54409;DHT22;40315;48.620;9.828;2024-03-23T09:28:03;7.20;99.90
54409;DHT22;40315;48.620;9.828;2024-03-23T09:30:31;7.10;99.90
54409;DHT22;40315;48.620;9.828;2024-03-23T09:32:59;7.00;99.90
54409;DHT22;40315;48.620;9.828;2024-03-23T09:35:27;6.80;99.90
54409;DHT22;40315;48.620;9.828;2024-03-23T09:37:55;6.70;99.90
54409;DHT22;40315;48.620;9.828;2024-03-23T09:40:25;6.50;99.90
54409;DHT22;40315;48.620;9.828;2024-03-23T09:42:52;6.50;99.90
54409;DHT22;40315;48.620;9.828;2024-03-23T09:45:22;6.50;99.90
54409;DHT22;40315;48.620;9.828;2024-03-23T09:47:48;6.50;99.90
54409;DHT22;40315;48.620;9.828;2024-03-23T09:50:18;6.50;99.90
54409;DHT22;40315;48.620;9.828;2024-03-23T09:52:46;6.60;99.90
54409;DHT22;40315;48.620;9.828;2024-03-23T09:55:14;6.70;99.90
54409;DHT22;40315;48.620;9.828;2024-03-23T09:57:40;6.80;99.90
54409;DHT22;40315;48.620;9.828;2024-03-23T10:00:08;6.50;99.90
54409;DHT22;40315;48.620;9.828;2024-03-23T10:02:35;6.50;99.90
54409;DHT22;40315;48.620;9.828;2024-03-23T10:05:09;6.60;99.90
54409;DHT22;40315;48.620;9.828;2024-03-23T10:07:49;6.60;99.90
54409;DHT22;40315;48.620;9.828;2024-03-23T10:10:17;6.80;99.90
54409;DHT22;40315;48.620;9.828;2024-03-23T10:12:48;6.70;99.90
54409;DHT22;40315;48.620;9.828;2024-03-23T10:15:20;7.00;99.90
54409;DHT22;40315;48.620;9.828;2024-03-23T10:17:46;7.20;99.90
54409;DHT22;40315;48.620;9.828;2024-03-23T10:20:20;7.20;99.90
54409;DHT22;40315;48.620;9.828;2024-03-23T10:22:50;7.70;99.90
54409;DHT22;40315;48.620;9.828;2024-03-23T10:25:24;7.70;99.90
54409;DHT22;40315;48.620;9.828;2024-03-23T10:27:58;7.70;99.90
54409;DHT22;40315;48.620;9.828;2024-03-23T10:30:28;7.70;99.90
54409;DHT22;40315;48.620;9.828;2024-03-23T10:33:07;7.70;99.90
54409;DHT22;40315;48.620;9.828;2024-03-23T10:35:34;7.50;99.90
54409;DHT22;40315;48.620;9.828;2024-03-23T10:38:07;7.60;99.90
54409;DHT22;40315;48.620;9.828;2024-03-23T10:40:34;7.80;99.90
54409;DHT22;40315;48.620;9.828;2024-03-23T10:43:03;7.80;99.90
54409;DHT22;40315;48.620;9.828;2024-03-23T10:45:30;7.90;99.90
54409;DHT22;40315;48.620;9.828;2024-03-23T10:47:57;8.00;99.90
54409;DHT22;40315;48.620;9.828;2024-03-23T10:50:23;8.40;99.90
54409;DHT22;40315;48.620;9.828;2024-03-23T10:52:52;8.60;99.90
54409;DHT22;40315;48.620;9.828;2024-03-23T10:55:23;8.80;99.90
54409;DHT22;40315;48.620;9.828;2024-03-23T10:57:54;8.90;99.90
54409;DHT22;40315;48.620;9.828;2024-03-23T11:00:21;9.30;99.90
54409;DHT22;40315;48.620;9.828;2024-03-23T11:02:49;9.20;99.90
54409;DHT22;40315;48.620;9.828;2024-03-23T11:05:28;9.40;99.90
54409;DHT22;40315;48.620;9.828;2024-03-23T11:07:58;9.30;99.90
54409;DHT22;40315;48.620;9.828;2024-03-23T11:10:27;9.30;99.90
54409;DHT22;40315;48.620;9.828;2024-03-23T11:15:21;9.60;99.90
54409;DHT22;40315;48.620;9.828;2024-03-23T11:18:05;9.30;99.90
54409;DHT22;40315;48.620;9.828;2024-03-23T11:20:34;9.20;99.90
54409;DHT22;40315;48.620;9.828;2024-03-23T11:23:01;9.00;99.90
54409;DHT22;40315;48.620;9.828;2024-03-23T11:25:29;8.90;99.90
54409;DHT22;40315;48.620;9.828;2024-03-23T11:27:57;8.80;99.90
54409;DHT22;40315;48.620;9.828;2024-03-23T11:30:24;8.70;99.90
54409;DHT22;40315;48.620;9.828;2024-03-23T11:32:53;8.60;99.90
54409;DHT22;40315;48.620;9.828;2024-03-23T11:35:26;8.40;99.90
54409;DHT22;40315;48.620;9.828;2024-03-23T11:38:06;8.30;99.90
54409;DHT22;40315;48.620;9.828;2024-03-23T11:40:35;8.40;99.90
54409;DHT22;40315;48.620;9.828;2024-03-23T11:43:04;8.20;99.90
54409;DHT22;40315;48.620;9.828;2024-03-23T11:45:37;8.20;99.90
54409;DHT22;40315;48.620;9.828;2024-03-23T11:48:08;7.30;99.90
54409;DHT22;40315;48.620;9.828;2024-03-23T11:50:37;6.60;99.90
54409;DHT22;40315;48.620;9.828;2024-03-23T11:53:11;5.80;99.90
54409;DHT22;40315;48.620;9.828;2024-03-23T11:55:47;5.40;99.90
54409;DHT22;40315;48.620;9.828;2024-03-23T11:58:15;5.50;99.90
54409;DHT22;40315;48.620;9.828;2024-03-23T12:00:41;5.30;99.90
54409;DHT22;40315;48.620;9.828;2024-03-23T12:03:09;5.20;99.90
54409;DHT22;40315;48.620;9.828;2024-03-23T12:05:37;5.30;99.90
54409;DHT22;40315;48.620;9.828;2024-03-23T12:08:21;5.40;99.90
54409;DHT22;40315;48.620;9.828;2024-03-23T12:10:50;5.50;99.90
54409;DHT22;40315;48.620;9.828;2024-03-23T12:13:19;5.70;99.90
54409;DHT22;40315;48.620;9.828;2024-03-23T12:15:49;5.80;99.90
54409;DHT22;40315;48.620;9.828;2024-03-23T12:18:24;6.00;99.90
54409;DHT22;40315;48.620;9.828;2024-03-23T12:23:18;6.30;99.90
54409;DHT22;40315;48.620;9.828;2024-03-23T12:25:50;6.60;99.90
54409;DHT22;40315;48.620;9.828;2024-03-23T12:28:17;6.50;99.90
54409;DHT22;40315;48.620;9.828;2024-03-23T12:30:44;6.50;99.90
54409;DHT22;40315;48.620;9.828;2024-03-23T12:33:11;6.50;99.90
54409;DHT22;40315;48.620;9.828;2024-03-23T12:35:37;6.60;99.90
54409;DHT22;40315;48.620;9.828;2024-03-23T12:38:04;6.80;99.90
54409;DHT22;40315;48.620;9.828;2024-03-23T12:40:33;7.00;99.90
54409;DHT22;40315;48.620;9.828;2024-03-23T12:43:01;6.90;99.90
54409;DHT22;40315;48.620;9.828;2024-03-23T12:45:27;6.70;99.90
54409;DHT22;40315;48.620;9.828;2024-03-23T12:47:56;6.60;99.90
54409;DHT22;40315;48.620;9.828;2024-03-23T12:50:22;6.50;99.90
54409;DHT22;40315;48.620;9.828;2024-03-23T12:52:51;6.50;99.90
54409;DHT22;40315;48.620;9.828;2024-03-23T12:55:20;6.50;99.90
54409;DHT22;40315;48.620;9.828;2024-03-23T12:57:49;6.70;99.90
54409;DHT22;40315;48.620;9.828;2024-03-23T13:00:17;6.80;99.90
54409;DHT22;40315;48.620;9.828;2024-03-23T13:02:45;6.70;99.90
54409;DHT22;40315;48.620;9.828;2024-03-23T13:05:13;6.60;99.90
54409;DHT22;40315;48.620;9.828;2024-03-23T13:07:43;6.60;99.90
54409;DHT22;40315;48.620;9.828;2024-03-23T13:10:09;7.50;99.90
54409;DHT22;40315;48.620;9.828;2024-03-23T13:12:36;6.80;99.90
54409;DHT22;40315;48.620;9.828;2024-03-23T13:15:02;6.80;99.90
54409;DHT22;40315;48.620;9.828;2024-03-23T13:17:31;7.40;99.90
54409;DHT22;40315;48.620;9.828;2024-03-23T13:19:57;7.60;99.90
54409;DHT22;40315;48.620;9.828;2024-03-23T13:22:24;7.70;99.90
54409;DHT22;40315;48.620;9.828;2024-03-23T13:24:51;8.00;99.90
54409;DHT22;40315;48.620;9.828;2024-03-23T13:27:18;8.30;99.90
54409;DHT22;40315;48.620;9.828;2024-03-23T13:29:44;8.90;99.90
54409;DHT22;40315;48.620;9.828;2024-03-23T13:32:12;9.10;99.90
54409;DHT22;40315;48.620;9.828;2024-03-23T13:34:39;9.20;99.90
54409;DHT22;40315;48.620;9.828;2024-03-23T13:37:06;9.20;99.90
54409;DHT22;40315;48.620;9.828;2024-03-23T13:39:33;8.30;99.90
54409;DHT22;40315;48.620;9.828;2024-03-23T13:42:00;8.20;99.90
54409;DHT22;40315;48.620;9.828;2024-03-23T13:44:29;8.40;99.90
54409;DHT22;40315;48.620;9.828;2024-03-23T13:46:58;8.70;99.90
54409;DHT22;40315;48.620;9.828;2024-03-23T13:49:28;8.80;99.90
54409;DHT22;40315;48.620;9.828;2024-03-23T13:51:56;8.80;99.90
54409;DHT22;40315;48.620;9.828;2024-03-23T13:54:26;8.90;99.90
54409;DHT22;40315;48.620;9.828;2024-03-23T13:56:54;9.20;99.90
54409;DHT22;40315;48.620;9.828;2024-03-23T13:59:22;9.30;99.90
54409;DHT22;40315;48.620;9.828;2024-03-23T14:01:49;9.40;99.90
54409;DHT22;40315;48.620;9.828;2024-03-23T14:04:19;9.50;99.90
54409;DHT22;40315;48.620;9.828;2024-03-23T14:06:45;9.30;99.90
54409;DHT22;40315;48.620;9.828;2024-03-23T14:09:14;8.90;99.90
54409;DHT22;40315;48.620;9.828;2024-03-23T14:11:41;8.50;99.90
54409;DHT22;40315;48.620;9.828;2024-03-23T14:14:09;8.60;99.90
54409;DHT22;40315;48.620;9.828;2024-03-23T14:19:04;9.10;99.90
54409;DHT22;40315;48.620;9.828;2024-03-23T14:21:31;9.10;99.90
54409;DHT22;40315;48.620;9.828;2024-03-23T14:24:00;9.10;99.90
54409;DHT22;40315;48.620;9.828;2024-03-23T14:26:28;8.70;99.90
54409;DHT22;40315;48.620;9.828;2024-03-23T14:28:55;8.70;99.90
54409;DHT22;40315;48.620;9.828;2024-03-23T14:31:20;8.80;99.90
54409;DHT22;40315;48.620;9.828;2024-03-23T14:33:50;9.20;99.90
54409;DHT22;40315;48.620;9.828;2024-03-23T14:36:16;9.10;99.90
54409;DHT22;40315;48.620;9.828;2024-03-23T14:38:47;12.10;99.90
54409;DHT22;40315;48.620;9.828;2024-03-23T14:41:13;9.60;99.90
54409;DHT22;40315;48.620;9.828;2024-03-23T14:43:42;9.50;99.90
54409;DHT22;40315;48.620;9.828;2024-03-23T14:46:12;9.50;99.90
54409;DHT22;40315;48.620;9.828;2024-03-23T14:48:41;8.60;99.90
54409;DHT22;40315;48.620;9.828;2024-03-23T14:51:08;8.60;99.90
54409;DHT22;40315;48.620;9.828;2024-03-23T14:53:37;8.50;99.90
54409;DHT22;40315;48.620;9.828;2024-03-23T14:56:06;8.70;99.90
54409;DHT22;40315;48.620;9.828;2024-03-23T14:58:36;8.70;99.90
54409;DHT22;40315;48.620;9.828;2024-03-23T15:01:04;8.20;99.90
54409;DHT22;40315;48.620;9.828;2024-03-23T15:03:37;8.40;99.90
54409;DHT22;40315;48.620;9.828;2024-03-23T15:06:05;8.60;99.90
54409;DHT22;40315;48.620;9.828;2024-03-23T15:08:33;8.30;99.90
54409;DHT22;40315;48.620;9.828;2024-03-23T15:10:59;8.10;99.90
54409;DHT22;40315;48.620;9.828;2024-03-23T15:13:32;8.10;99.90
54409;DHT22;40315;48.620;9.828;2024-03-23T15:15:58;8.40;99.90
54409;DHT22;40315;48.620;9.828;2024-03-23T15:18:27;7.80;99.90
54409;DHT22;40315;48.620;9.828;2024-03-23T15:20:57;7.60;99.90
54409;DHT22;40315;48.620;9.828;2024-03-23T15:23:28;7.20;99.90
54409;DHT22;40315;48.620;9.828;2024-03-23T15:25:58;6.80;99.90
54409;DHT22;40315;48.620;9.828;2024-03-23T15:28:26;6.70;99.90
54409;DHT22;40315;48.620;9.828;2024-03-23T15:31:05;6.70;99.90
54409;DHT22;40315;48.620;9.828;2024-03-23T15:33:34;6.50;99.90
54409;DHT22;40315;48.620;9.828;2024-03-23T15:36:03;6.40;99.90
54409;DHT22;40315;48.620;9.828;2024-03-23T15:38:33;6.30;99.90
54409;DHT22;40315;48.620;9.828;2024-03-23T15:40:59;6.30;99.90
54409;DHT22;40315;48.620;9.828;2024-03-23T15:43:27;6.20;99.90
54409;DHT22;40315;48.620;9.828;2024-03-23T15:45:56;6.20;99.90
54409;DHT22;40315;48.620;9.828;2024-03-23T15:48:25;6.20;99.90
54409;DHT22;40315;48.620;9.828;2024-03-23T15:50:54;6.30;99.90
54409;DHT22;40315;48.620;9.828;2024-03-23T15:53:22;6.30;99.90
54409;DHT22;40315;48.620;9.828;2024-03-23T15:55:53;6.10;99.90
54409;DHT22;40315;48.620;9.828;2024-03-23T15:58:20;6.20;99.90
54409;DHT22;40315;48.620;9.828;2024-03-23T16:00:53;6.40;99.90
54409;DHT22;40315;48.620;9.828;2024-03-23T16:03:20;6.30;99.90
54409;DHT22;40315;48.620;9.828;2024-03-23T16:05:50;6.30;99.90
54409;DHT22;40315;48.620;9.828;2024-03-23T16:08:18;6.30;99.90
54409;DHT22;40315;48.620;9.828;2024-03-23T16:10:47;6.40;99.90
54409;DHT22;40315;48.620;9.828;2024-03-23T16:13:15;6.70;99.90
54409;DHT22;40315;48.620;9.828;2024-03-23T16:15:41;6.90;99.90
54409;DHT22;40315;48.620;9.828;2024-03-23T16:18:12;6.80;99.90
54409;DHT22;40315;48.620;9.828;2024-03-23T16:23:05;6.60;99.90
54409;DHT22;40315;48.620;9.828;2024-03-23T16:25:33;6.50;99.90
54409;DHT22;40315;48.620;9.828;2024-03-23T16:28:01;6.60;99.90
54409;DHT22;40315;48.620;9.828;2024-03-23T16:30:27;6.60;99.90
54409;DHT22;40315;48.620;9.828;2024-03-23T16:32:57;6.70;99.90
54409;DHT22;40315;48.620;9.828;2024-03-23T16:35:24;6.50;99.90
54409;DHT22;40315;48.620;9.828;2024-03-23T16:37:51;6.20;99.90
54409;DHT22;40315;48.620;9.828;2024-03-23T16:40:17;6.10;99.90
54409;DHT22;40315;48.620;9.828;2024-03-23T16:42:46;6.10;99.90
54409;DHT22;40315;48.620;9.828;2024-03-23T16:45:13;6.10;99.90
54409;DHT22;40315;48.620;9.828;2024-03-23T16:47:42;6.00;99.90
54409;DHT22;40315;48.620;9.828;2024-03-23T16:50:12;6.10;99.90
54409;DHT22;40315;48.620;9.828;2024-03-23T16:52:40;6.20;99.90
54409;DHT22;40315;48.620;9.828;2024-03-23T16:55:07;6.30;99.90
54409;DHT22;40315;48.620;9.828;2024-03-23T16:57:36;5.90;99.90
54409;DHT22;40315;48.620;9.828;2024-03-23T17:00:05;5.90;99.90
54409;DHT22;40315;48.620;9.828;2024-03-23T17:02:36;5.80;99.90
54409;DHT22;40315;48.620;9.828;2024-03-23T17:05:07;5.80;99.90